Time;durP1;ratioP1;P1;durP2;ratioP2;P2;SDS_P1;SDS_P2;PMS_P1;PMS_P2;Temp;Humidity;BMP_temperature;BMP_pressure;BME280_temperature;BME280_humidity;BME280_pressure;Samples;Min_cycle;Max_cycle;Signal;HPM_P1;HPM_P2
2023/06/25 00:01:49;;;;;;;5.07;4.00;;;;;;;;;;6209261;23;20040;-85
2023/06/25 00:04:15;;;;;;;5.03;3.78;;;;;;;;;;6208389;23;20016;-85
2023/06/25 00:06:41;;;;;;;6.00;3.83;;;;;;;;;;6208926;23;20016;-86
2023/06/25 00:09:07;;;;;;;5.53;3.92;;;;;;;;;;6209133;23;20091;-86
2023/06/25 00:11:33;;;;;;;5.40;4.05;;;;;;;;;;6209523;23;20012;-86
2023/06/25 00:13:59;;;;;;;5.93;4.45;;;;;;;;;;6209379;23;20016;-86
2023/06/25 00:16:25;;;;;;;5.53;4.13;;;;;;;;;;6210479;23;20119;-86
2023/06/25 00:18:51;;;;;;;5.80;4.22;;;;;;;;;;6208754;23;20023;-86
2023/06/25 00:21:17;;;;;;;6.60;4.25;;;;;;;;;;6210249;23;20066;-86
2023/06/25 00:23:43;;;;;;;6.93;4.00;;;;;;;;;;6210304;23;20074;-85
2023/06/25 00:26:09;;;;;;;4.93;4.00;;;;;;;;;;6211397;23;20048;-85
2023/06/25 00:28:37;;;;;;;6.15;4.38;;;;;;;;;;6210228;23;20092;-85
2023/06/25 00:31:04;;;;;;;6.55;4.25;;;;;;;;;;6212824;23;20024;-86
2023/06/25 00:33:32;;;;;;;5.60;3.88;;;;;;;;;;6210478;23;20027;-86
2023/06/25 00:35:58;;;;;;;6.03;4.10;;;;;;;;;;6211956;23;20206;-86
2023/06/25 00:38:24;;;;;;;5.65;4.35;;;;;;;;;;6211206;23;20084;-86
2023/06/25 00:40:50;;;;;;;7.75;5.00;;;;;;;;;;6210448;23;20016;-85
2023/06/25 00:43:16;;;;;;;6.13;4.55;;;;;;;;;;6210113;23;20028;-85
2023/06/25 00:45:43;;;;;;;5.47;4.25;;;;;;;;;;6185622;23;20017;-85
2023/06/25 00:48:09;;;;;;;6.18;4.20;;;;;;;;;;6210128;23;20028;-85
2023/06/25 00:50:35;;;;;;;5.30;4.18;;;;;;;;;;6212064;23;20434;-85
2023/06/25 00:53:02;;;;;;;5.65;4.35;;;;;;;;;;6210613;23;20021;-85
2023/06/25 00:55:28;;;;;;;5.68;4.28;;;;;;;;;;6210906;23;20055;-85
2023/06/25 00:57:56;;;;;;;6.55;4.45;;;;;;;;;;6212610;23;20044;-85
2023/06/25 01:00:25;;;;;;;6.03;4.32;;;;;;;;;;6210620;23;20028;-85
2023/06/25 01:02:54;;;;;;;5.30;4.35;;;;;;;;;;6210489;23;20334;-85
2023/06/25 01:05:26;;;;;;;5.78;4.05;;;;;;;;;;6211211;23;20337;-85
2023/06/25 01:07:53;;;;;;;5.65;4.00;;;;;;;;;;6210410;23;20055;-85
2023/06/25 01:10:19;;;;;;;5.13;3.88;;;;;;;;;;6212703;23;20036;-85
2023/06/25 01:12:45;;;;;;;7.20;4.55;;;;;;;;;;6212744;23;20016;-85
2023/06/25 01:15:12;;;;;;;5.47;4.05;;;;;;;;;;6216957;23;20080;-86
2023/06/25 01:17:41;;;;;;;6.47;4.93;;;;;;;;;;6215730;23;20024;-85
2023/06/25 01:20:15;;;;;;;6.75;5.03;;;;;;;;;;6217279;23;20016;-85
2023/06/25 01:22:41;;;;;;;6.60;4.88;;;;;;;;;;6213998;23;20084;-85
2023/06/25 01:25:08;;;;;;;6.85;4.40;;;;;;;;;;6212416;23;20462;-86
2023/06/25 01:27:34;;;;;;;7.00;5.10;;;;;;;;;;6212157;23;20021;-86
2023/06/25 01:30:01;;;;;;;7.22;5.05;;;;;;;;;;6210473;23;20342;-86
2023/06/25 01:32:27;;;;;;;7.18;5.50;;;;;;;;;;6212187;23;20047;-86
2023/06/25 01:34:54;;;;;;;8.63;5.13;;;;;;;;;;6212174;23;20468;-86
2023/06/25 01:37:20;;;;;;;6.70;4.88;;;;;;;;;;6211372;23;20019;-87
2023/06/25 01:39:50;;;;;;;7.35;5.20;;;;;;;;;;6211838;23;20331;-87
2023/06/25 01:42:16;;;;;;;7.20;5.20;;;;;;;;;;6186731;23;20252;-86
2023/06/25 01:44:43;;;;;;;6.32;5.15;;;;;;;;;;6210874;23;20023;-86
2023/06/25 01:47:09;;;;;;;5.70;4.65;;;;;;;;;;6211992;23;20016;-85
2023/06/25 01:49:35;;;;;;;8.15;5.50;;;;;;;;;;6211516;23;20066;-86
2023/06/25 01:52:02;;;;;;;7.47;5.13;;;;;;;;;;6211919;23;20024;-86
2023/06/25 01:54:28;;;;;;;9.35;5.43;;;;;;;;;;6212650;23;20465;-85
2023/06/25 01:56:55;;;;;;;7.60;5.32;;;;;;;;;;6210694;23;20028;-85
2023/06/25 01:59:21;;;;;;;8.30;5.88;;;;;;;;;;6210566;23;20019;-85
2023/06/25 02:01:47;;;;;;;7.85;6.05;;;;;;;;;;6211474;23;20024;-86
2023/06/25 02:04:13;;;;;;;7.97;6.38;;;;;;;;;;6212367;23;20071;-85
2023/06/25 02:06:39;;;;;;;7.18;5.32;;;;;;;;;;6213575;23;20012;-85
2023/06/25 02:09:05;;;;;;;9.10;5.78;;;;;;;;;;6212885;23;20032;-85
2023/06/25 02:11:31;;;;;;;8.50;5.57;;;;;;;;;;6213498;23;20040;-85
2023/06/25 02:13:57;;;;;;;7.70;5.47;;;;;;;;;;6211125;23;20090;-86
2023/06/25 02:16:23;;;;;;;7.80;6.05;;;;;;;;;;6211878;23;20040;-85
2023/06/25 02:18:49;;;;;;;7.97;6.03;;;;;;;;;;6184859;23;20013;-85
2023/06/25 02:21:16;;;;;;;8.82;5.78;;;;;;;;;;6211502;23;20020;-86
2023/06/25 02:23:42;;;;;;;10.05;6.38;;;;;;;;;;6211635;23;20075;-86
2023/06/25 02:26:09;;;;;;;8.95;5.90;;;;;;;;;;6211309;23;20020;-86
2023/06/25 02:28:35;;;;;;;7.85;5.70;;;;;;;;;;6210723;23;20087;-86
2023/06/25 02:31:01;;;;;;;7.38;5.65;;;;;;;;;;6212283;23;20016;-85
2023/06/25 02:33:27;;;;;;;8.85;6.55;;;;;;;;;;6210863;23;20024;-85
2023/06/25 02:35:53;;;;;;;8.07;5.90;;;;;;;;;;6210144;23;20016;-85
2023/06/25 02:38:19;;;;;;;8.73;5.90;;;;;;;;;;6210450;23;20013;-85
2023/06/25 02:40:45;;;;;;;7.50;5.53;;;;;;;;;;6207103;23;20063;-84
2023/06/25 02:43:11;;;;;;;7.82;5.45;;;;;;;;;;6211464;23;20017;-85
2023/06/25 02:45:37;;;;;;;8.05;5.95;;;;;;;;;;6209544;23;20020;-86
2023/06/25 02:48:03;;;;;;;7.90;6.00;;;;;;;;;;6212238;23;20066;-85
2023/06/25 02:50:29;;;;;;;11.20;6.75;;;;;;;;;;6211165;23;20088;-85
2023/06/25 02:52:55;;;;;;;10.65;7.15;;;;;;;;;;6211193;23;20048;-85
2023/06/25 02:55:21;;;;;;;10.05;6.57;;;;;;;;;;6209881;23;20020;-85
2023/06/25 02:57:47;;;;;;;9.38;6.47;;;;;;;;;;6209782;23;20052;-85
2023/06/25 03:00:13;;;;;;;9.75;6.65;;;;;;;;;;6212565;23;20021;-85
2023/06/25 03:02:39;;;;;;;10.88;7.20;;;;;;;;;;6211658;23;20017;-86
2023/06/25 03:05:06;;;;;;;10.82;7.13;;;;;;;;;;6214119;23;20071;-86
2023/06/25 03:07:31;;;;;;;9.88;6.57;;;;;;;;;;6186762;23;20119;-86
2023/06/25 03:09:57;;;;;;;11.57;7.15;;;;;;;;;;6210616;23;20025;-86
2023/06/25 03:12:24;;;;;;;11.70;7.57;;;;;;;;;;6210805;23;20017;-85
2023/06/25 03:14:50;;;;;;;11.90;7.32;;;;;;;;;;6209965;23;20016;-85
2023/06/25 03:17:16;;;;;;;11.57;7.70;;;;;;;;;;6211487;23;20106;-85
2023/06/25 03:19:42;;;;;;;12.30;7.47;;;;;;;;;;6209762;23;20016;-85
2023/06/25 03:22:08;;;;;;;11.65;8.00;;;;;;;;;;6212935;23;20019;-85
2023/06/25 03:24:34;;;;;;;10.02;6.72;;;;;;;;;;6211852;23;20019;-85
2023/06/25 03:27:00;;;;;;;11.07;7.72;;;;;;;;;;6184552;23;20024;-85
2023/06/25 03:29:26;;;;;;;10.63;7.63;;;;;;;;;;6208763;23;20082;-85
2023/06/25 03:31:52;;;;;;;11.52;8.50;;;;;;;;;;6210051;23;20050;-85
2023/06/25 03:34:18;;;;;;;12.00;7.03;;;;;;;;;;6209709;23;20016;-85
2023/06/25 03:36:44;;;;;;;10.48;7.13;;;;;;;;;;6210930;23;20359;-85
2023/06/25 03:39:10;;;;;;;12.73;8.48;;;;;;;;;;6210511;23;20012;-86
2023/06/25 03:41:36;;;;;;;13.73;8.40;;;;;;;;;;6210287;23;20108;-85
2023/06/25 03:44:02;;;;;;;12.57;8.10;;;;;;;;;;6211654;23;20012;-86
2023/06/25 03:46:28;;;;;;;10.80;7.90;;;;;;;;;;6211511;23;20438;-86
2023/06/25 03:48:54;;;;;;;11.52;8.07;;;;;;;;;;6210067;23;20021;-86
2023/06/25 03:51:20;;;;;;;12.23;8.02;;;;;;;;;;6212152;23;20013;-86
2023/06/25 03:53:46;;;;;;;12.77;8.45;;;;;;;;;;6210116;23;20548;-86
2023/06/25 03:56:12;;;;;;;11.70;8.50;;;;;;;;;;6209039;23;20021;-86
2023/06/25 03:58:38;;;;;;;13.57;7.90;;;;;;;;;;6212066;23;20012;-85
2023/06/25 04:01:04;;;;;;;11.55;7.70;;;;;;;;;;6209762;23;20016;-85
2023/06/25 04:03:30;;;;;;;11.30;7.85;;;;;;;;;;6209983;23;20019;-86
2023/06/25 04:05:56;;;;;;;11.57;7.93;;;;;;;;;;6210666;23;20024;-86
2023/06/25 04:08:22;;;;;;;10.80;8.05;;;;;;;;;;6210402;23;20024;-86
2023/06/25 04:10:48;;;;;;;11.52;8.20;;;;;;;;;;6209752;23;20060;-86
2023/06/25 04:13:14;;;;;;;13.57;7.85;;;;;;;;;;6209392;23;20074;-86
2023/06/25 04:15:40;;;;;;;12.25;7.95;;;;;;;;;;6211220;23;20017;-86
2023/06/25 04:18:06;;;;;;;14.75;8.63;;;;;;;;;;6210070;23;20095;-87
2023/06/25 04:20:32;;;;;;;16.75;8.50;;;;;;;;;;6210637;23;20017;-86
2023/06/25 04:22:59;;;;;;;11.13;7.57;;;;;;;;;;6210834;23;20047;-86
2023/06/25 04:25:25;;;;;;;12.10;8.00;;;;;;;;;;6211019;23;20024;-86
2023/06/25 04:27:51;;;;;;;13.20;8.07;;;;;;;;;;6212305;23;20035;-85
2023/06/25 04:30:17;;;;;;;11.40;8.30;;;;;;;;;;6209128;23;20426;-86
2023/06/25 04:32:43;;;;;;;12.07;7.72;;;;;;;;;;6210132;23;20088;-86
2023/06/25 04:35:09;;;;;;;11.60;7.22;;;;;;;;;;6211200;23;20097;-86
2023/06/25 04:37:35;;;;;;;9.63;7.10;;;;;;;;;;6211099;23;20311;-84
2023/06/25 04:40:05;;;;;;;10.98;7.82;;;;;;;;;;6180829;23;20020;-84
2023/06/25 04:42:31;;;;;;;9.63;7.38;;;;;;;;;;6208735;23;20017;-84
2023/06/25 04:44:57;;;;;;;11.32;7.30;;;;;;;;;;6210662;23;20013;-84
2023/06/25 04:47:23;;;;;;;11.75;7.35;;;;;;;;;;6207888;23;20078;-84
2023/06/25 04:49:49;;;;;;;10.70;7.65;;;;;;;;;;6208389;23;20044;-85
2023/06/25 04:52:19;;;;;;;10.63;7.18;;;;;;;;;;6184952;23;20441;-84
2023/06/25 04:54:48;;;;;;;11.30;7.60;;;;;;;;;;6208752;23;20017;-85
2023/06/25 04:57:14;;;;;;;12.60;7.05;;;;;;;;;;6210192;23;20016;-84
2023/06/25 04:59:40;;;;;;;10.43;6.85;;;;;;;;;;6213521;23;20346;-85
2023/06/25 05:02:07;;;;;;;9.20;6.38;;;;;;;;;;6208744;23;20083;-83
2023/06/25 05:04:33;;;;;;;10.30;6.70;;;;;;;;;;6208618;23;20071;-82
2023/06/25 05:06:59;;;;;;;9.30;6.45;;;;;;;;;;6210583;23;20016;-86
2023/06/25 05:09:25;;;;;;;9.20;6.68;;;;;;;;;;6208266;23;20063;-86
2023/06/25 05:11:51;;;;;;;10.05;6.45;;;;;;;;;;6185248;23;20407;-85
2023/06/25 05:14:17;;;;;;;9.57;6.72;;;;;;;;;;6211855;23;20025;-83
2023/06/25 05:16:43;;;;;;;9.45;6.30;;;;;;;;;;6210594;23;20118;-85
2023/06/25 05:19:09;;;;;;;8.43;6.10;;;;;;;;;;6213645;23;20013;-84
2023/06/25 05:21:35;;;;;;;8.60;6.18;;;;;;;;;;6211452;23;20058;-85
2023/06/25 05:24:03;;;;;;;8.90;6.28;;;;;;;;;;6209554;23;20016;-84
2023/06/25 05:26:29;;;;;;;8.10;6.20;;;;;;;;;;6208957;23;20481;-86
2023/06/25 05:28:56;;;;;;;9.48;6.85;;;;;;;;;;6210330;23;20044;-84
2023/06/25 05:31:22;;;;;;;8.60;6.13;;;;;;;;;;6211428;23;20481;-85
2023/06/25 05:33:48;;;;;;;8.23;6.28;;;;;;;;;;6209929;23;20099;-83
2023/06/25 05:36:14;;;;;;;8.68;6.05;;;;;;;;;;6208511;23;20457;-84
2023/06/25 05:38:40;;;;;;;8.63;6.53;;;;;;;;;;6210962;23;20091;-84
2023/06/25 05:41:06;;;;;;;8.07;5.40;;;;;;;;;;6210089;23;20019;-86
2023/06/25 05:43:32;;;;;;;7.57;5.82;;;;;;;;;;6210064;23;20012;-87
2023/06/25 05:45:58;;;;;;;10.93;6.75;;;;;;;;;;6208824;23;20047;-86
2023/06/25 05:48:24;;;;;;;9.95;5.95;;;;;;;;;;6210529;23;20342;-83
2023/06/25 05:50:50;;;;;;;9.55;5.88;;;;;;;;;;6207405;23;20023;-84
2023/06/25 05:53:16;;;;;;;8.77;5.43;;;;;;;;;;6209681;23;20012;-84
2023/06/25 05:55:42;;;;;;;8.65;5.60;;;;;;;;;;6211769;23;20009;-84
2023/06/25 05:58:08;;;;;;;8.65;6.55;;;;;;;;;;6210084;23;20013;-83
2023/06/25 06:00:34;;;;;;;8.43;5.38;;;;;;;;;;6210256;23;20021;-84
2023/06/25 06:03:00;;;;;;;7.40;5.70;;;;;;;;;;6210435;23;20019;-85
2023/06/25 06:05:26;;;;;;;9.90;6.32;;;;;;;;;;6210049;23;20028;-83
2023/06/25 06:07:52;;;;;;;9.13;6.82;;;;;;;;;;6184814;23;20047;-84
2023/06/25 06:10:18;;;;;;;9.23;6.57;;;;;;;;;;6184840;23;20016;-84
2023/06/25 06:12:44;;;;;;;10.95;6.50;;;;;;;;;;6212280;23;20013;-84
2023/06/25 06:15:11;;;;;;;10.20;7.30;;;;;;;;;;6212705;23;20383;-85
2023/06/25 06:17:37;;;;;;;8.88;7.40;;;;;;;;;;6212448;23;20027;-84
2023/06/25 06:20:03;;;;;;;7.05;6.15;;;;;;;;;;6211687;23;20019;-83
2023/06/25 06:22:30;;;;;;;8.70;7.38;;;;;;;;;;6206819;23;20020;-83
2023/06/25 06:24:56;;;;;;;10.48;7.13;;;;;;;;;;6210277;23;20023;-84
2023/06/25 06:27:22;;;;;;;6.90;6.13;;;;;;;;;;6210119;23;20023;-83
2023/06/25 06:29:48;;;;;;;9.57;7.38;;;;;;;;;;6211085;23;20024;-83
2023/06/25 06:32:14;;;;;;;9.25;7.03;;;;;;;;;;6211742;23;20016;-84
2023/06/25 06:34:41;;;;;;;8.80;7.80;;;;;;;;;;6210450;23;20063;-83
2023/06/25 06:37:07;;;;;;;9.63;7.82;;;;;;;;;;6209371;23;20016;-83
2023/06/25 06:39:33;;;;;;;8.98;6.82;;;;;;;;;;6210774;23;20391;-84
2023/06/25 06:41:59;;;;;;;9.77;7.53;;;;;;;;;;6211858;23;20063;-83
2023/06/25 06:44:25;;;;;;;9.05;6.80;;;;;;;;;;6210412;23;20012;-84
2023/06/25 06:46:51;;;;;;;7.43;6.63;;;;;;;;;;6211949;23;20087;-83
2023/06/25 06:49:19;;;;;;;8.15;7.15;;;;;;;;;;6209741;23;20076;-83
2023/06/25 06:51:45;;;;;;;10.13;7.70;;;;;;;;;;6211500;23;20044;-84
2023/06/25 06:54:11;;;;;;;7.93;7.13;;;;;;;;;;6209889;23;20096;-83
2023/06/25 06:56:38;;;;;;;8.75;7.13;;;;;;;;;;6211444;23;20055;-83
2023/06/25 06:59:04;;;;;;;8.38;7.28;;;;;;;;;;6185160;23;20023;-84
2023/06/25 07:01:30;;;;;;;10.90;8.38;;;;;;;;;;6209846;23;20092;-83
2023/06/25 07:03:56;;;;;;;10.73;8.35;;;;;;;;;;6210272;23;20032;-84
2023/06/25 07:06:22;;;;;;;10.43;7.47;;;;;;;;;;6210165;23;20330;-82
2023/06/25 07:08:48;;;;;;;10.50;8.55;;;;;;;;;;6206748;23;20012;-86
2023/06/25 07:11:16;;;;;;;9.15;8.25;;;;;;;;;;6212282;23;20009;-84
2023/06/25 07:13:43;;;;;;;10.25;8.40;;;;;;;;;;6212249;23;20013;-85
2023/06/25 07:16:10;;;;;;;8.95;7.90;;;;;;;;;;6214203;23;20019;-85
2023/06/25 07:18:36;;;;;;;10.02;8.00;;;;;;;;;;6212830;23;20017;-85
2023/06/25 07:21:02;;;;;;;12.77;8.93;;;;;;;;;;6211238;23;20017;-85
2023/06/25 07:23:28;;;;;;;10.45;8.73;;;;;;;;;;6189754;23;20092;-85
2023/06/25 07:25:54;;;;;;;9.85;8.75;;;;;;;;;;6222558;23;20016;-86
2023/06/25 07:28:20;;;;;;;9.60;8.43;;;;;;;;;;6228519;23;20017;-88
2023/06/25 07:30:47;;;;;;;8.82;8.02;;;;;;;;;;6223597;23;20044;-83
2023/06/25 07:33:13;;;;;;;10.63;8.65;;;;;;;;;;6212503;23;20012;-84
2023/06/25 07:35:39;;;;;;;9.80;7.95;;;;;;;;;;6215757;23;20393;-85
2023/06/25 07:38:05;;;;;;;11.25;8.98;;;;;;;;;;6219023;23;20016;-86
2023/06/25 07:40:31;;;;;;;10.35;8.30;;;;;;;;;;6218926;23;20016;-86
2023/06/25 07:42:57;;;;;;;10.23;9.13;;;;;;;;;;6211707;23;20012;-85
2023/06/25 07:45:23;;;;;;;10.35;8.50;;;;;;;;;;6202568;23;20021;-84
2023/06/25 07:47:49;;;;;;;11.05;9.32;;;;;;;;;;6208804;23;20071;-84
2023/06/25 07:50:15;;;;;;;10.75;8.80;;;;;;;;;;6210260;23;20219;-85
2023/06/25 07:52:41;;;;;;;9.45;7.88;;;;;;;;;;6207970;23;20016;-85
2023/06/25 07:55:07;;;;;;;9.45;7.63;;;;;;;;;;6209686;23;20021;-84
2023/06/25 07:57:33;;;;;;;8.52;7.72;;;;;;;;;;6208250;23;20190;-86
2023/06/25 07:59:59;;;;;;;9.82;8.70;;;;;;;;;;6207587;23;20020;-91
2023/06/25 08:02:25;;;;;;;11.93;9.05;;;;;;;;;;6208135;23;20075;-88
2023/06/25 08:04:52;;;;;;;9.50;7.07;;;;;;;;;;6209339;23;20028;-88
2023/06/25 08:07:18;;;;;;;9.13;7.43;;;;;;;;;;6207897;23;20009;-86
2023/06/25 08:09:45;;;;;;;8.13;7.32;;;;;;;;;;6208599;23;20012;-87
2023/06/25 08:12:11;;;;;;;8.55;7.72;;;;;;;;;;6208091;23;20016;-86
2023/06/25 08:14:37;;;;;;;8.38;7.60;;;;;;;;;;6208505;23;20021;-87
2023/06/25 08:17:03;;;;;;;7.15;6.45;;;;;;;;;;6207494;23;20016;-86
2023/06/25 08:19:29;;;;;;;8.18;7.38;;;;;;;;;;6208431;23;20399;-85
2023/06/25 08:21:55;;;;;;;7.07;6.38;;;;;;;;;;6207556;23;20386;-85
2023/06/25 08:24:21;;;;;;;7.78;6.75;;;;;;;;;;6207276;23;20012;-85
2023/06/25 08:26:47;;;;;;;6.82;6.22;;;;;;;;;;6207871;23;20067;-86
2023/06/25 08:29:13;;;;;;;8.18;6.45;;;;;;;;;;6207025;23;20085;-86
2023/06/25 08:31:39;;;;;;;7.53;6.82;;;;;;;;;;6205432;23;20232;-86
2023/06/25 08:34:05;;;;;;;6.40;5.80;;;;;;;;;;6207153;23;20013;-87
2023/06/25 08:36:31;;;;;;;6.78;6.07;;;;;;;;;;6209461;23;20024;-85
2023/06/25 08:38:57;;;;;;;5.88;5.35;;;;;;;;;;6206922;23;20039;-89
2023/06/25 08:41:23;;;;;;;5.95;5.35;;;;;;;;;;6206325;23;20021;-90
2023/06/25 08:43:49;;;;;;;5.80;5.25;;;;;;;;;;6209697;23;20039;-89
2023/06/25 08:46:15;;;;;;;5.50;4.97;;;;;;;;;;6209886;23;20016;-89
2023/06/25 08:48:42;;;;;;;7.13;5.50;;;;;;;;;;6210438;23;20449;-88
2023/06/25 08:51:16;;;;;;;5.80;4.43;;;;;;;;;;6214587;23;20017;-89
2023/06/25 08:53:43;;;;;;;5.70;4.30;;;;;;;;;;6212659;23;20016;-89
2023/06/25 08:56:10;;;;;;;6.28;4.72;;;;;;;;;;6210987;23;20027;-92
2023/06/25 08:58:36;;;;;;;8.32;4.97;;;;;;;;;;6212056;23;20026;-91
2023/06/25 09:01:03;;;;;;;6.75;4.28;;;;;;;;;;6210376;23;20164;-90
2023/06/25 14:36:40;;;;;;;4.63;3.80;;;;;;;;;;6211363;23;20035;-87
2023/06/25 14:39:06;;;;;;;5.18;4.45;;;;;;;;;;6183818;23;20043;-87
2023/06/25 14:41:32;;;;;;;4.57;3.97;;;;;;;;;;6208631;23;20472;-88
2023/06/25 14:43:58;;;;;;;4.35;3.95;;;;;;;;;;6212461;23;20107;-90
2023/06/25 14:46:24;;;;;;;4.05;3.75;;;;;;;;;;6211647;23;20063;-88
2023/06/25 14:48:51;;;;;;;5.15;4.10;;;;;;;;;;6209317;23;20027;-89
2023/06/25 14:51:17;;;;;;;4.32;3.92;;;;;;;;;;6211584;23;20092;-88
2023/06/25 14:53:43;;;;;;;4.78;3.92;;;;;;;;;;6211054;23;20016;-91
2023/06/25 14:56:09;;;;;;;4.82;3.67;;;;;;;;;;6211474;23;20048;-87
2023/06/25 14:58:35;;;;;;;4.40;3.72;;;;;;;;;;6210374;23;20023;-88
2023/06/25 15:01:01;;;;;;;4.85;4.38;;;;;;;;;;6210033;23;20012;-87
2023/06/25 15:03:27;;;;;;;4.75;4.35;;;;;;;;;;6210379;23;20020;-87
2023/06/25 15:05:53;;;;;;;4.35;3.70;;;;;;;;;;6211206;23;20092;-87
2023/06/25 15:08:19;;;;;;;4.72;4.32;;;;;;;;;;6210805;23;20017;-88
2023/06/25 15:10:45;;;;;;;4.97;4.47;;;;;;;;;;6211478;23;20013;-91
2023/06/25 15:13:12;;;;;;;4.60;4.10;;;;;;;;;;6211570;23;20154;-90
2023/06/25 15:15:38;;;;;;;4.40;4.00;;;;;;;;;;6210516;23;20013;-90
2023/06/25 15:18:04;;;;;;;4.82;3.95;;;;;;;;;;6210717;23;20047;-92
2023/06/25 15:20:30;;;;;;;4.22;3.83;;;;;;;;;;6210105;23;20028;-89
2023/06/25 15:22:56;;;;;;;4.25;3.63;;;;;;;;;;6209674;23;20017;-90
2023/06/25 15:25:22;;;;;;;5.30;4.05;;;;;;;;;;6209471;23;20044;-87
2023/06/25 15:27:49;;;;;;;4.85;4.25;;;;;;;;;;6212524;23;20016;-88
2023/06/25 15:30:15;;;;;;;4.78;4.03;;;;;;;;;;6210575;23;20338;-87
2023/06/25 15:32:42;;;;;;;4.25;3.85;;;;;;;;;;6208866;23;20016;-87
2023/06/25 15:35:08;;;;;;;5.15;4.25;;;;;;;;;;6210958;23;20056;-88
2023/06/25 15:37:34;;;;;;;5.45;4.30;;;;;;;;;;6211208;23;20067;-85
2023/06/25 15:40:00;;;;;;;4.50;3.78;;;;;;;;;;6211149;23;20048;-85
2023/06/25 15:42:26;;;;;;;4.03;3.63;;;;;;;;;;6210744;23;20021;-83
2023/06/25 15:44:52;;;;;;;5.30;4.32;;;;;;;;;;6211033;23;20017;-85
2023/06/25 15:47:18;;;;;;;4.75;4.35;;;;;;;;;;6206052;23;20023;-85
2023/06/25 15:49:45;;;;;;;4.45;4.00;;;;;;;;;;6209189;23;20036;-84
2023/06/25 15:52:11;;;;;;;4.28;3.88;;;;;;;;;;6210762;23;20009;-83
2023/06/25 15:54:37;;;;;;;6.05;4.28;;;;;;;;;;6210639;23;20396;-84
2023/06/25 15:57:03;;;;;;;4.18;3.78;;;;;;;;;;6207618;23;20048;-85
2023/06/25 15:59:30;;;;;;;4.22;3.83;;;;;;;;;;6210201;23;20453;-86
2023/06/25 16:01:56;;;;;;;4.45;3.65;;;;;;;;;;6209434;23;20044;-86
2023/06/25 16:04:22;;;;;;;4.10;3.35;;;;;;;;;;6210525;23;20016;-86
2023/06/25 16:06:51;;;;;;;4.10;3.70;;;;;;;;;;6208563;23;20028;-86
2023/06/25 16:09:17;;;;;;;3.60;3.30;;;;;;;;;;6207902;23;20824;-88
2023/06/25 16:11:43;;;;;;;4.57;3.72;;;;;;;;;;6208329;23;20020;-92
2023/06/25 16:14:09;;;;;;;5.32;3.97;;;;;;;;;;6180920;23;20017;-86
2023/06/25 16:16:35;;;;;;;4.68;4.28;;;;;;;;;;6207701;23;20047;-86
2023/06/25 16:19:01;;;;;;;4.97;4.18;;;;;;;;;;6208882;23;20013;-86
2023/06/25 16:21:27;;;;;;;4.72;3.80;;;;;;;;;;6208822;23;20023;-85
2023/06/25 16:23:53;;;;;;;4.40;4.00;;;;;;;;;;6209500;23;20009;-86
2023/06/25 16:26:19;;;;;;;4.25;3.78;;;;;;;;;;6208582;23;20338;-85
2023/06/25 16:28:45;;;;;;;4.95;4.20;;;;;;;;;;6210782;23;20009;-86
2023/06/25 16:31:11;;;;;;;4.47;4.05;;;;;;;;;;6208058;23;20496;-87
2023/06/25 16:33:37;;;;;;;4.55;3.90;;;;;;;;;;6208882;23;20013;-86
2023/06/25 16:36:03;;;;;;;4.57;4.18;;;;;;;;;;6208693;23;20450;-86
2023/06/25 16:38:29;;;;;;;5.05;4.13;;;;;;;;;;6209654;23;20013;-85
2023/06/25 16:40:56;;;;;;;4.47;3.60;;;;;;;;;;6210840;23;20012;-86
2023/06/25 16:43:22;;;;;;;4.35;3.95;;;;;;;;;;6207722;23;20067;-86
2023/06/25 16:45:48;;;;;;;4.18;3.75;;;;;;;;;;6210323;23;20016;-86
2023/06/25 16:48:14;;;;;;;4.20;3.70;;;;;;;;;;6210551;23;20012;-86
2023/06/25 16:50:40;;;;;;;5.13;4.32;;;;;;;;;;6208974;23;20009;-87
2023/06/25 16:53:06;;;;;;;5.13;3.78;;;;;;;;;;6207927;23;20088;-86
2023/06/25 16:55:32;;;;;;;3.88;3.58;;;;;;;;;;6210803;23;20048;-86
2023/06/25 16:57:59;;;;;;;4.43;4.05;;;;;;;;;;6209268;23;20021;-86
2023/06/25 17:00:25;;;;;;;4.15;3.75;;;;;;;;;;6207462;23;20020;-86
2023/06/25 17:02:51;;;;;;;3.58;3.20;;;;;;;;;;6209061;23;20022;-86
2023/06/25 17:05:17;;;;;;;4.55;4.07;;;;;;;;;;6211409;23;20070;-85
2023/06/25 17:07:43;;;;;;;4.32;3.88;;;;;;;;;;6209643;23;20393;-85
2023/06/25 17:10:09;;;;;;;4.72;4.28;;;;;;;;;;6213320;23;20078;-86
2023/06/25 17:12:35;;;;;;;3.78;3.47;;;;;;;;;;6212939;23;20035;-86
2023/06/25 17:15:01;;;;;;;4.22;3.78;;;;;;;;;;6212998;23;20020;-86
2023/06/25 17:17:27;;;;;;;4.10;3.72;;;;;;;;;;6212559;23;20473;-85
2023/06/25 17:19:53;;;;;;;3.58;3.28;;;;;;;;;;6210572;23;20338;-85
2023/06/25 17:22:19;;;;;;;4.10;3.70;;;;;;;;;;6211680;23;20017;-86
2023/06/25 17:24:45;;;;;;;4.70;4.30;;;;;;;;;;6212035;23;20370;-87
2023/06/25 17:27:11;;;;;;;4.70;4.30;;;;;;;;;;6208635;23;20071;-85
2023/06/25 17:29:37;;;;;;;4.95;3.45;;;;;;;;;;6210440;23;20048;-85
2023/06/25 17:32:03;;;;;;;4.95;4.45;;;;;;;;;;6210068;23;20027;-86
2023/06/25 17:34:30;;;;;;;4.38;3.97;;;;;;;;;;6211867;23;20442;-86
2023/06/25 17:36:56;;;;;;;3.80;3.40;;;;;;;;;;6212828;23;20048;-86
2023/06/25 17:39:22;;;;;;;4.10;3.70;;;;;;;;;;6212026;23;20012;-86
2023/06/25 17:41:48;;;;;;;4.65;3.80;;;;;;;;;;6211172;23;20073;-86
2023/06/25 17:44:14;;;;;;;5.07;4.13;;;;;;;;;;6210731;23;20019;-86
2023/06/25 17:46:40;;;;;;;4.35;3.92;;;;;;;;;;6211032;23;20013;-86
2023/06/25 17:49:06;;;;;;;3.80;3.40;;;;;;;;;;6210532;23;20386;-85
2023/06/25 17:51:32;;;;;;;4.10;3.75;;;;;;;;;;6212111;23;20023;-85
2023/06/25 17:53:58;;;;;;;4.30;3.90;;;;;;;;;;6208107;23;20023;-86
2023/06/25 17:56:24;;;;;;;4.88;4.18;;;;;;;;;;6210189;23;20025;-86
2023/06/25 17:58:50;;;;;;;4.38;3.97;;;;;;;;;;6209768;23;20075;-87
2023/06/25 18:01:16;;;;;;;6.60;4.05;;;;;;;;;;6211718;23;20051;-86
2023/06/25 18:03:42;;;;;;;4.05;3.65;;;;;;;;;;6212389;23;20084;-86
2023/06/25 18:06:08;;;;;;;4.22;3.83;;;;;;;;;;6211542;23;20016;-86
2023/06/25 18:08:34;;;;;;;4.43;4.03;;;;;;;;;;6208931;23;20016;-86
2023/06/25 18:11:00;;;;;;;4.72;3.67;;;;;;;;;;6211010;23;20091;-86
2023/06/25 18:13:27;;;;;;;4.13;3.75;;;;;;;;;;6211380;23;20019;-86
2023/06/25 18:15:53;;;;;;;4.45;4.05;;;;;;;;;;6210139;23;20021;-85
2023/06/25 18:18:19;;;;;;;4.40;4.00;;;;;;;;;;6209960;23;20088;-86
2023/06/25 18:20:46;;;;;;;4.32;3.92;;;;;;;;;;6212200;23;20396;-86
2023/06/25 18:23:13;;;;;;;4.53;3.80;;;;;;;;;;6209937;23;20434;-85
2023/06/25 18:25:39;;;;;;;4.38;3.63;;;;;;;;;;6209257;23;20020;-86
2023/06/25 18:28:05;;;;;;;4.07;3.67;;;;;;;;;;6211568;23;20012;-86
2023/06/25 18:30:31;;;;;;;4.00;3.70;;;;;;;;;;6211820;23;20131;-86
2023/06/25 18:32:57;;;;;;;4.13;3.55;;;;;;;;;;6211881;23;20008;-86
2023/06/25 18:35:23;;;;;;;4.72;3.47;;;;;;;;;;6208854;23;20349;-86
2023/06/25 18:37:49;;;;;;;3.85;3.45;;;;;;;;;;6211030;23;20013;-86
2023/06/25 18:40:15;;;;;;;4.00;3.65;;;;;;;;;;6211550;23;20013;-86
2023/06/25 18:42:42;;;;;;;4.30;3.88;;;;;;;;;;6209658;23;20092;-85
2023/06/25 18:45:08;;;;;;;5.20;3.60;;;;;;;;;;6184983;23;20048;-86
2023/06/25 18:47:34;;;;;;;3.85;3.55;;;;;;;;;;6208612;23;20616;-85
2023/06/25 18:50:00;;;;;;;4.47;3.67;;;;;;;;;;6210486;23;20017;-85
2023/06/25 18:52:28;;;;;;;4.22;3.83;;;;;;;;;;6208494;23;20016;-86
2023/06/25 18:54:54;;;;;;;5.07;3.67;;;;;;;;;;6209175;23;20016;-86
2023/06/25 18:57:20;;;;;;;4.60;3.75;;;;;;;;;;6209431;23;20009;-86
2023/06/25 18:59:46;;;;;;;4.20;3.80;;;;;;;;;;6212094;23;20016;-86
2023/06/25 19:02:12;;;;;;;3.95;3.53;;;;;;;;;;6210169;23;20028;-86
2023/06/25 19:04:38;;;;;;;6.15;3.70;;;;;;;;;;6210116;23;20338;-86
2023/06/25 19:07:05;;;;;;;4.18;3.78;;;;;;;;;;6210015;23;20092;-86
2023/06/25 19:09:32;;;;;;;4.30;3.90;;;;;;;;;;6209095;23;20040;-86
2023/06/25 19:11:58;;;;;;;5.00;3.58;;;;;;;;;;6211385;23;20020;-85
2023/06/25 19:14:24;;;;;;;4.03;3.63;;;;;;;;;;6207878;23;20020;-86
2023/06/25 19:16:51;;;;;;;4.30;3.80;;;;;;;;;;6210345;23;20012;-87
2023/06/25 19:19:17;;;;;;;4.72;3.83;;;;;;;;;;6209603;23;20017;-87
2023/06/25 19:21:44;;;;;;;4.25;3.58;;;;;;;;;;6210524;23;20185;-87
2023/06/25 19:24:10;;;;;;;3.85;3.53;;;;;;;;;;6210436;23;20069;-87
2023/06/25 19:26:36;;;;;;;3.38;2.80;;;;;;;;;;6209700;23;20338;-87
2023/06/25 19:29:02;;;;;;;4.57;3.70;;;;;;;;;;6208751;23;20342;-87
2023/06/25 19:31:28;;;;;;;7.22;3.83;;;;;;;;;;6209568;23;20071;-87
2023/06/25 19:33:55;;;;;;;4.18;3.70;;;;;;;;;;6209061;23;20019;-87
2023/06/25 19:36:21;;;;;;;4.28;3.80;;;;;;;;;;6210295;23;20020;-87
2023/06/25 19:38:50;;;;;;;4.50;4.10;;;;;;;;;;6183661;23;20021;-87
2023/06/25 19:41:16;;;;;;;5.28;4.60;;;;;;;;;;6207377;23;20048;-88
2023/06/25 19:43:42;;;;;;;4.25;3.92;;;;;;;;;;6210730;23;20024;-87
2023/06/25 19:46:08;;;;;;;5.03;4.30;;;;;;;;;;6209223;23;20087;-88
2023/06/25 19:48:34;;;;;;;4.20;3.83;;;;;;;;;;6210687;23;20017;-88
2023/06/25 19:51:00;;;;;;;4.15;3.75;;;;;;;;;;6209316;23;20091;-88
2023/06/25 19:53:29;;;;;;;4.93;4.35;;;;;;;;;;6210071;23;20020;-87
2023/06/25 19:55:55;;;;;;;4.30;3.90;;;;;;;;;;6208223;23;20067;-87
2023/06/25 19:58:21;;;;;;;4.22;3.83;;;;;;;;;;6208908;23;20087;-87
2023/06/25 20:00:47;;;;;;;4.50;4.07;;;;;;;;;;6208478;23;20019;-87
2023/06/25 20:03:13;;;;;;;4.85;4.10;;;;;;;;;;6210783;23;20036;-88
2023/06/25 20:05:39;;;;;;;5.10;4.05;;;;;;;;;;6208715;23;20307;-88
2023/06/25 20:08:07;;;;;;;6.00;4.57;;;;;;;;;;6207363;23;20019;-87